Time;durP1;ratioP1;P1;durP2;ratioP2;P2;SDS_P1;SDS_P2;PMS_P1;PMS_P2;Temp;Humidity;BMP_temperature;BMP_pressure;BME280_temperature;BME280_humidity;BME280_pressure;Samples;Min_cycle;Max_cycle;Signal;HPM_P1;HPM_P2
2021/11/06 00:02:24;;;;;;;24.65;18.15;;;;;;;5.63;100.00;97908.97;5098434;28;20427;-66
2021/11/06 00:04:49;;;;;;;24.63;18.10;;;;;;;5.53;100.00;97907.53;5096165;28;20412;-66
2021/11/06 00:07:15;;;;;;;24.90;17.50;;;;;;;5.51;100.00;97909.50;5112058;28;20389;-66
2021/11/06 00:09:40;;;;;;;23.83;17.70;;;;;;;5.61;100.00;97905.75;5112773;28;20423;-66
2021/11/06 00:12:06;;;;;;;23.08;16.67;;;;;;;5.53;100.00;97908.34;5097780;28;20858;-66
2021/11/06 00:14:32;;;;;;;21.67;16.40;;;;;;;5.41;100.00;97897.50;5084157;28;20390;-66
2021/11/06 00:16:58;;;;;;;23.23;16.43;;;;;;;5.37;100.00;97901.41;5092526;28;20831;-66
2021/11/06 00:19:24;;;;;;;24.00;17.17;;;;;;;5.22;100.00;97902.25;5111496;28;20872;-66
2021/11/06 00:21:50;;;;;;;22.25;16.52;;;;;;;5.19;100.00;97905.97;5094722;28;20393;-66
2021/11/06 00:24:16;;;;;;;22.23;16.00;;;;;;;5.15;100.00;97904.69;5093538;28;20780;-66
2021/11/06 00:26:41;;;;;;;24.85;16.20;;;;;;;5.15;100.00;97904.69;5092606;28;20390;-66
2021/11/06 00:29:07;;;;;;;20.48;15.60;;;;;;;5.13;100.00;97898.84;5103097;28;20435;-66
2021/11/06 00:31:32;;;;;;;19.13;14.50;;;;;;;5.02;100.00;97897.41;5103753;28;20745;-66
2021/11/06 00:33:58;;;;;;;19.00;14.67;;;;;;;4.91;100.00;97897.72;5092572;28;20488;-66
2021/11/06 00:36:24;;;;;;;22.50;15.77;;;;;;;5.02;100.00;97901.78;5097075;28;20857;-67
2021/11/06 00:38:50;;;;;;;23.52;17.35;;;;;;;5.07;100.00;97903.91;5112344;28;20476;-66
2021/11/06 00:41:16;;;;;;;21.90;15.90;;;;;;;5.14;100.00;97900.47;5105288;28;20397;-66
2021/11/06 00:43:41;;;;;;;20.10;15.27;;;;;;;5.10;100.00;97906.16;5092086;28;20393;-66
2021/11/06 00:46:07;;;;;;;22.98;16.55;;;;;;;5.12;100.00;97910.25;5092526;28;20764;-66
2021/11/06 00:48:32;;;;;;;23.27;15.90;;;;;;;5.17;100.00;97894.16;5101751;28;20415;-66
2021/11/06 00:50:58;;;;;;;22.23;15.77;;;;;;;5.20;100.00;97902.41;5111968;28;20387;-66
2021/11/06 00:53:23;;;;;;;23.08;15.90;;;;;;;5.18;100.00;97904.38;5111255;28;20388;-66
2021/11/06 00:55:49;;;;;;;20.73;15.63;;;;;;;5.08;100.00;97902.91;5100759;28;20735;-66
2021/11/06 00:58:14;;;;;;;22.15;16.95;;;;;;;5.04;100.00;97907.63;5108951;28;20436;-66
2021/11/06 01:00:40;;;;;;;22.77;16.60;;;;;;;5.10;100.00;97906.97;5111722;28;20707;-66
2021/11/06 01:03:05;;;;;;;25.87;17.50;;;;;;;5.10;100.00;97906.97;5112281;28;20403;-65
2021/11/06 01:05:31;;;;;;;21.67;16.25;;;;;;;5.11;100.00;97916.41;5094388;28;20406;-66
2021/11/06 01:07:56;;;;;;;22.70;16.87;;;;;;;5.10;100.00;97917.38;5105974;28;20875;-66
2021/11/06 01:10:22;;;;;;;23.33;17.42;;;;;;;5.02;100.00;97915.59;5112144;28;20788;-65
2021/11/06 01:12:48;;;;;;;22.80;16.88;;;;;;;4.96;100.00;97916.25;5111399;28;20419;-66
2021/11/06 01:15:14;;;;;;;22.23;15.93;;;;;;;4.97;100.00;97920.47;5098631;28;20416;-66
2021/11/06 01:17:40;;;;;;;22.50;16.23;;;;;;;4.95;100.00;97916.41;5109677;28;20423;-65
2021/11/06 01:20:07;;;;;;;19.88;15.20;;;;;;;4.92;100.00;97920.16;5090364;28;20735;-66
2021/11/06 01:22:33;;;;;;;19.10;15.23;;;;;;;4.93;100.00;97918.34;5090345;28;20533;-66
2021/11/06 01:24:59;;;;;;;20.27;15.02;;;;;;;4.81;100.00;97914.47;5108237;28;20392;-65
2021/11/06 01:27:24;;;;;;;21.90;16.00;;;;;;;4.78;100.00;97912.19;5099813;28;20473;-66
2021/11/06 01:29:50;;;;;;;22.70;16.67;;;;;;;4.85;100.00;97918.34;5091279;28;20496;-66
2021/11/06 01:32:15;;;;;;;22.10;16.90;;;;;;;4.74;100.00;97916.88;5091516;28;20900;-66
2021/11/06 01:34:41;;;;;;;21.43;16.43;;;;;;;4.75;100.00;97918.50;5099390;28;20434;-65
2021/11/06 01:37:06;;;;;;;21.83;15.70;;;;;;;4.75;100.00;97915.09;5092025;28;20389;-64
2021/11/06 01:39:32;;;;;;;22.17;16.57;;;;;;;4.81;100.00;97910.06;5102827;28;20388;-65
2021/11/06 01:41:57;;;;;;;22.48;16.23;;;;;;;4.80;100.00;97905.84;5100435;28;20398;-65
2021/11/06 01:44:25;;;;;;;21.90;16.50;;;;;;;4.74;100.00;97903.91;5089556;28;20410;-65
2021/11/06 01:46:51;;;;;;;25.00;17.15;;;;;;;4.75;100.00;97904.72;5092593;28;20910;-64
2021/11/06 01:49:20;;;;;;;22.98;15.93;;;;;;;4.58;100.00;97904.72;5090078;28;20535;-64
2021/11/06 01:51:47;;;;;;;22.00;16.15;;;;;;;4.61;100.00;97903.59;5091366;28;20412;-65
2021/11/06 01:54:13;;;;;;;24.70;17.33;;;;;;;4.67;100.00;97902.13;5092534;28;20390;-65
2021/11/06 01:56:38;;;;;;;25.38;16.95;;;;;;;4.72;100.00;97900.69;5091515;28;20385;-65
2021/11/06 01:59:04;;;;;;;21.07;16.07;;;;;;;4.78;100.00;97901.81;5099000;28;20533;-65
2021/11/06 02:01:29;;;;;;;23.02;16.70;;;;;;;4.77;100.00;97905.38;5095415;28;20398;-65
2021/11/06 02:03:55;;;;;;;21.70;16.50;;;;;;;4.72;100.00;97903.28;5095344;28;20420;-67
2021/11/06 02:06:20;;;;;;;23.23;17.03;;;;;;;4.64;100.00;97899.84;5096365;28;20394;-65
2021/11/06 02:08:45;;;;;;;23.48;16.80;;;;;;;4.58;100.00;97898.69;5096636;28;20400;-66
2021/11/06 02:11:11;;;;;;;22.20;16.03;;;;;;;4.61;100.00;97901.00;5113641;28;20384;-66
2021/11/06 02:13:36;;;;;;;22.47;16.87;;;;;;;4.66;100.00;97896.13;5113449;28;20384;-65
2021/11/06 02:16:02;;;;;;;22.25;16.38;;;;;;;4.68;100.00;97893.38;5097558;28;20743;-65
2021/11/06 02:18:28;;;;;;;21.40;16.23;;;;;;;4.57;100.00;97889.28;5095661;28;20483;-65
2021/11/06 02:21:07;;;;;;;23.73;16.87;;;;;;;4.57;100.00;97886.69;5114792;28;20760;-65
2021/11/06 02:23:38;;;;;;;24.75;16.90;;;;;;;4.50;100.00;97886.56;5114530;28;20384;-65
2021/11/06 02:26:08;;;;;;;23.40;16.97;;;;;;;4.48;100.00;97885.06;5105691;28;20488;-65
2021/11/06 02:28:33;;;;;;;23.42;17.45;;;;;;;4.49;100.00;97884.91;5113660;28;20872;-65
2021/11/06 02:30:58;;;;;;;25.53;18.03;;;;;;;4.63;100.00;97886.06;5113554;28;20388;-65
2021/11/06 02:33:24;;;;;;;33.33;18.03;;;;;;;4.57;100.00;97889.28;5113077;28;20951;-65
2021/11/06 02:35:50;;;;;;;41.80;16.15;;;;;;;4.49;100.00;97902.28;5114636;28;20400;-65
2021/11/06 02:38:15;;;;;;;33.10;16.30;;;;;;;4.54;100.00;97889.63;5110862;28;20393;-65
2021/11/06 02:40:41;;;;;;;31.33;14.40;;;;;;;4.72;100.00;97897.25;5104539;28;20440;-65
2021/11/06 02:43:09;;;;;;;32.27;13.67;;;;;;;4.60;100.00;97897.59;5112818;28;20457;-66
2021/11/06 02:45:35;;;;;;;27.67;14.60;;;;;;;4.44;100.00;97899.34;5107335;28;20902;-65
2021/11/06 02:48:01;;;;;;;26.33;13.85;;;;;;;4.48;100.00;97883.28;5112735;28;20505;-65
2021/11/06 02:50:26;;;;;;;23.33;11.70;;;;;;;4.49;100.00;97886.69;5092715;28;20409;-65
2021/11/06 02:52:52;;;;;;;27.33;11.60;;;;;;;4.36;100.00;97886.34;5094313;28;20851;-65
2021/11/06 02:55:18;;;;;;;20.80;10.77;;;;;;;4.31;100.00;97891.22;5094066;28;20540;-64
2021/11/06 02:57:44;;;;;;;17.30;11.73;;;;;;;4.27;100.00;97892.50;5094376;28;20879;-65
2021/11/06 03:00:10;;;;;;;17.63;11.10;;;;;;;4.33;100.00;97889.28;5102153;28;20485;-65
2021/11/06 03:02:36;;;;;;;20.53;10.30;;;;;;;4.21;100.00;97893.16;5105406;28;20508;-65
2021/11/06 03:05:07;;;;;;;17.87;10.20;;;;;;;4.18;100.00;97899.44;5094743;28;20414;-65
2021/11/06 03:07:33;;;;;;;18.83;9.55;;;;;;;4.04;100.00;97902.66;5093772;28;20390;-65
2021/11/06 03:09:58;;;;;;;13.55;9.85;;;;;;;3.98;100.00;97906.69;5093636;28;20497;-64
2021/11/06 03:12:25;;;;;;;17.83;7.93;;;;;;;3.66;100.00;97904.81;5095051;28;20192;-64
2021/11/06 03:14:50;;;;;;;8.67;7.47;;;;;;;3.70;100.00;97907.88;5106795;28;20179;-64
2021/11/06 03:17:16;;;;;;;11.07;7.60;;;;;;;3.57;100.00;97902.31;5095204;28;20203;-65
2021/11/06 03:19:41;;;;;;;10.03;6.97;;;;;;;3.31;100.00;97900.56;5095268;28;20305;-65
2021/11/06 03:22:07;;;;;;;8.97;6.97;;;;;;;3.42;100.00;97902.09;5094643;28;20181;-65
2021/11/06 03:24:32;;;;;;;10.93;7.43;;;;;;;3.42;100.00;97903.88;5095024;28;20487;-65
2021/11/06 03:26:58;;;;;;;13.03;7.23;;;;;;;3.48;100.00;97911.84;5092951;28;20185;-65
2021/11/06 03:29:24;;;;;;;12.37;7.40;;;;;;;3.52;100.00;97910.56;5098178;28;20208;-65
2021/11/06 03:31:49;;;;;;;11.00;7.60;;;;;;;3.27;100.00;97907.03;5111058;28;20183;-64
2021/11/06 03:34:15;;;;;;;9.00;6.70;;;;;;;3.09;100.00;97913.22;5095394;28;20652;-65
2021/11/06 03:36:40;;;;;;;10.60;7.50;;;;;;;3.25;100.00;97906.38;5096396;28;20195;-65
2021/11/06 03:39:06;;;;;;;10.87;7.77;;;;;;;3.23;100.00;97907.50;5101666;28;20184;-65
2021/11/06 03:41:31;;;;;;;11.97;8.23;;;;;;;3.25;100.00;97910.72;5095739;28;20188;-65
2021/11/06 03:43:57;;;;;;;11.20;8.10;;;;;;;3.44;100.00;97905.34;5094859;28;20169;-65
2021/11/06 03:46:22;;;;;;;11.23;8.40;;;;;;;3.50;100.00;97903.91;5102977;28;20252;-65
2021/11/06 03:48:48;;;;;;;11.60;8.30;;;;;;;3.48;100.00;97906.66;5092523;28;20590;-65
2021/11/06 03:51:14;;;;;;;13.30;9.23;;;;;;;3.38;100.00;97911.13;5098605;28;20215;-65
2021/11/06 03:53:39;;;;;;;13.00;9.20;;;;;;;3.47;100.00;97915.38;5114008;28;20187;-67
2021/11/06 03:56:05;;;;;;;11.13;8.13;;;;;;;3.21;100.00;97914.59;5096158;28;20184;-65
2021/11/06 03:58:30;;;;;;;13.73;8.63;;;;;;;3.06;100.00;97922.13;5113129;28;20594;-65
2021/11/06 04:00:56;;;;;;;12.50;8.37;;;;;;;3.14;100.00;97926.53;5107473;28;20208;-65
2021/11/06 04:03:21;;;;;;;13.50;8.80;;;;;;;3.16;100.00;97920.25;5097019;28;20181;-65
2021/11/06 04:05:47;;;;;;;11.53;7.73;;;;;;;3.18;100.00;97922.66;5094219;28;20629;-65
2021/11/06 04:08:12;;;;;;;11.77;7.77;;;;;;;3.18;100.00;97922.66;5093998;28;20258;-65
2021/11/06 04:10:38;;;;;;;11.03;8.00;;;;;;;3.00;100.00;97921.91;5090996;28;20180;-65
2021/11/06 04:13:03;;;;;;;10.27;7.53;;;;;;;2.96;100.00;97920.56;5100411;28;20184;-65
2021/11/06 04:15:29;;;;;;;12.57;7.93;;;;;;;3.02;100.00;97919.97;5094298;28;20298;-65
2021/11/06 04:17:55;;;;;;;11.87;7.83;;;;;;;3.10;100.00;97915.66;5093684;28;20195;-65
2021/11/06 04:20:20;;;;;;;10.47;7.97;;;;;;;2.97;100.00;97924.78;5097146;28;20644;-67
2021/11/06 04:22:46;;;;;;;13.43;8.17;;;;;;;2.75;100.00;97921.69;5102073;28;20195;-65
2021/11/06 04:25:11;;;;;;;14.17;9.60;;;;;;;2.73;100.00;97920.25;5093870;28;20176;-65
2021/11/06 04:27:37;;;;;;;12.10;8.53;;;;;;;2.71;100.00;97922.16;5093717;28;20275;-65
2021/11/06 04:30:05;;;;;;;10.10;7.47;;;;;;;2.67;100.00;97926.00;5107943;28;20200;-65
2021/11/06 04:32:31;;;;;;;11.93;8.47;;;;;;;2.63;100.00;97924.66;5110343;28;20233;-65
2021/11/06 04:34:56;;;;;;;14.97;9.50;;;;;;;2.71;100.00;97935.09;5092178;28;20222;-65
2021/11/06 04:37:21;;;;;;;14.00;8.80;;;;;;;3.05;100.00;97935.22;5094236;28;20185;-65
2021/11/06 04:39:47;;;;;;;11.13;8.03;;;;;;;2.96;100.00;97934.31;5093185;28;20184;-66
2021/11/06 04:42:12;;;;;;;12.60;9.37;;;;;;;2.82;100.00;97933.09;5093578;28;20301;-65
2021/11/06 04:44:37;;;;;;;12.43;8.77;;;;;;;2.81;100.00;97934.06;5093625;28;20184;-65
2021/11/06 04:47:03;;;;;;;15.20;9.93;;;;;;;2.74;100.00;97930.44;5098085;28;20638;-65
2021/11/06 04:49:28;;;;;;;11.40;8.53;;;;;;;2.62;100.00;97933.41;5093483;28;20530;-65
2021/11/06 04:51:54;;;;;;;13.10;9.07;;;;;;;2.61;100.00;97931.78;5095164;28;20396;-65
2021/11/06 04:54:19;;;;;;;12.10;9.30;;;;;;;2.60;100.00;97927.56;5112709;28;20186;-65
2021/11/06 04:56:45;;;;;;;12.53;9.23;;;;;;;2.50;100.00;97932.81;5109927;28;20190;-65
2021/11/06 04:59:10;;;;;;;11.87;7.87;;;;;;;2.59;100.00;97918.97;5095638;28;20624;-65
2021/11/06 05:01:36;;;;;;;13.13;8.80;;;;;;;2.51;100.00;97931.84;5113082;28;20183;-65
2021/11/06 05:04:01;;;;;;;14.80;8.47;;;;;;;2.49;100.00;97931.19;5084953;28;20308;-64
2021/11/06 05:06:27;;;;;;;12.90;8.67;;;;;;;2.60;100.00;97930.16;5071049;28;20188;-65
2021/11/06 05:08:53;;;;;;;15.20;9.70;;;;;;;2.55;100.00;97933.19;5060325;28;20216;-65
2021/11/06 05:11:19;;;;;;;13.53;8.73;;;;;;;2.66;100.00;97934.72;5052662;28;20189;-65
2021/11/06 05:13:44;;;;;;;15.83;9.80;;;;;;;2.66;100.00;97938.13;5052661;28;20592;-65
2021/11/06 05:16:09;;;;;;;15.57;9.90;;;;;;;2.66;100.00;97948.50;5054872;28;20246;-65
2021/11/06 05:18:35;;;;;;;17.37;10.80;;;;;;;2.73;100.00;97952.09;5055414;28;20661;-65
2021/11/06 05:21:01;;;;;;;14.50;9.60;;;;;;;2.81;100.00;97939.22;5051957;28;20193;-65
2021/11/06 05:23:26;;;;;;;15.57;9.70;;;;;;;2.64;100.00;97947.00;5055029;28;20190;-67
2021/11/06 05:25:52;;;;;;;14.90;10.13;;;;;;;2.57;100.00;97938.19;5070631;28;20549;-65
2021/11/06 05:28:17;;;;;;;15.17;9.70;;;;;;;2.59;100.00;97946.63;5070631;28;20576;-65
2021/11/06 05:30:43;;;;;;;13.70;9.30;;;;;;;2.58;100.00;97947.59;5070778;28;20201;-65
2021/11/06 05:33:10;;;;;;;12.83;8.80;;;;;;;2.50;100.00;97950.94;5062723;28;20201;-66
2021/11/06 05:35:35;;;;;;;10.13;8.00;;;;;;;2.34;100.00;97954.16;5055553;28;20657;-65
2021/11/06 05:38:01;;;;;;;12.07;8.53;;;;;;;2.25;100.00;97949.03;5071888;28;20177;-66
2021/11/06 05:40:27;;;;;;;12.00;7.70;;;;;;;2.29;100.00;97956.34;5074753;28;20182;-65
2021/11/06 05:42:52;;;;;;;9.90;7.77;;;;;;;2.28;100.00;97952.16;5065932;28;20174;-65
2021/11/06 05:45:17;;;;;;;10.43;7.50;;;;;;;2.15;100.00;97948.28;5070153;28;20637;-65
2021/11/06 05:47:43;;;;;;;12.37;7.63;;;;;;;2.18;100.00;97953.16;5074676;28;20185;-65
2021/11/06 05:50:10;;;;;;;14.93;7.40;;;;;;;2.05;100.00;97959.50;5076295;28;20284;-65
2021/11/06 05:52:36;;;;;;;15.60;7.67;;;;;;;2.15;100.00;97951.69;5071364;28;20647;-66
2021/11/06 05:55:04;;;;;;;17.17;7.33;;;;;;;2.00;100.00;97959.13;5075855;28;20217;-66
2021/11/06 05:57:29;;;;;;;8.90;7.17;;;;;;;1.92;100.00;97956.44;5075958;28;20193;-66
2021/11/06 05:59:55;;;;;;;13.63;7.13;;;;;;;1.81;100.00;97951.44;5076264;28;20193;-66
2021/11/06 06:02:20;;;;;;;26.43;7.07;;;;;;;1.97;100.00;97951.66;5063383;28;20530;-66
2021/11/06 06:04:46;;;;;;;12.30;6.47;;;;;;;1.98;100.00;97955.03;5081115;28;20696;-66
2021/11/06 06:07:12;;;;;;;27.97;7.17;;;;;;;1.87;100.00;97957.81;5094921;28;20188;-67
2021/11/06 06:09:37;;;;;;;16.40;6.80;;;;;;;2.12;100.00;97964.09;5089691;28;20218;-66
2021/11/06 06:12:03;;;;;;;22.07;6.67;;;;;;;2.00;100.00;97960.91;5096449;28;20187;-66
2021/11/06 06:14:28;;;;;;;28.70;6.93;;;;;;;2.02;100.00;97958.97;5094724;28;20662;-66
2021/11/06 06:16:54;;;;;;;12.63;6.40;;;;;;;2.02;100.00;97962.38;5096360;28;20184;-65
2021/11/06 06:19:19;;;;;;;15.23;6.60;;;;;;;1.83;100.00;97969.41;5095884;28;20192;-66
2021/11/06 06:21:45;;;;;;;18.63;6.23;;;;;;;1.90;100.00;97970.44;5095392;28;20177;-66
2021/11/06 06:24:10;;;;;;;22.90;7.43;;;;;;;1.88;100.00;97962.84;5095628;28;20588;-67
2021/11/06 06:26:35;;;;;;;10.77;6.43;;;;;;;2.07;100.00;97965.34;5094560;28;20233;-66
2021/11/06 06:29:01;;;;;;;12.03;6.13;;;;;;;2.18;100.00;97968.66;5094260;28;20285;-67
2021/11/06 06:31:27;;;;;;;17.47;7.00;;;;;;;2.31;100.00;97976.91;5094944;28;20203;-66
2021/11/06 06:33:53;;;;;;;14.37;6.87;;;;;;;2.35;100.00;97979.06;5095385;28;20180;-66
2021/11/06 06:36:18;;;;;;;10.87;6.37;;;;;;;2.31;100.00;97979.50;5095161;28;20698;-66
2021/11/06 06:38:44;;;;;;;19.57;6.80;;;;;;;2.46;100.00;97985.78;5093978;28;20282;-66
2021/11/06 06:41:09;;;;;;;21.60;7.00;;;;;;;2.39;100.00;97990.75;5095122;28;20192;-67
2021/11/06 06:43:35;;;;;;;18.17;7.00;;;;;;;2.40;100.00;97996.72;5094678;28;20211;-66
2021/11/06 06:46:01;;;;;;;13.47;7.20;;;;;;;2.47;100.00;97998.59;5095360;28;20204;-67
2021/11/06 06:48:27;;;;;;;21.23;8.00;;;;;;;2.48;100.00;97995.06;5093834;28;20291;-66
2021/11/06 06:50:52;;;;;;;20.63;8.40;;;;;;;2.71;100.00;97992.84;5094100;28;20177;-67
2021/11/06 06:53:19;;;;;;;15.53;8.13;;;;;;;2.73;100.00;97998.69;5094632;28;20717;-70
2021/11/06 06:55:45;;;;;;;22.00;8.73;;;;;;;2.81;100.00;98003.13;5095139;28;20290;-66
2021/11/06 06:58:11;;;;;;;20.53;8.67;;;;;;;3.01;100.00;98003.81;5093839;28;20292;-66
2021/11/06 07:00:36;;;;;;;21.33;8.87;;;;;;;2.99;100.00;98001.38;5094857;28;20259;-68
2021/11/06 07:03:02;;;;;;;16.63;8.47;;;;;;;3.12;100.00;98001.78;5094363;28;20275;-66
2021/11/06 07:05:28;;;;;;;15.83;8.10;;;;;;;3.11;100.00;98007.13;5098234;28;20224;-67
2021/11/06 07:07:56;;;;;;;13.17;7.13;;;;;;;3.02;100.00;98013.19;5114198;28;20877;-66
2021/11/06 07:10:21;;;;;;;18.37;8.27;;;;;;;3.08;100.00;98015.19;5108669;28;20208;-66
2021/11/06 07:12:48;;;;;;;18.50;8.30;;;;;;;2.86;100.00;98019.03;5110296;28;20670;-65
2021/11/06 07:15:14;;;;;;;18.43;8.97;;;;;;;3.55;100.00;98006.16;5093550;28;20645;-65
2021/11/06 07:17:39;;;;;;;16.07;8.70;;;;;;;3.67;100.00;98014.50;5095963;28;20183;-67
2021/11/06 07:20:06;;;;;;;17.03;8.33;;;;;;;3.57;100.00;98012.00;5093571;28;20185;-67
2021/11/06 07:22:32;;;;;;;11.80;7.40;;;;;;;3.55;100.00;98013.94;5094683;28;20544;-66
2021/11/06 07:24:57;;;;;;;14.63;6.70;;;;;;;3.56;100.00;98015.56;5099942;28;20267;-66
2021/11/06 07:27:23;;;;;;;12.87;7.07;;;;;;;3.70;100.00;98015.00;5100972;28;20191;-66
2021/11/06 07:29:48;;;;;;;14.37;7.30;;;;;;;3.48;100.00;98012.91;5094325;28;20283;-67
2021/11/06 07:32:14;;;;;;;12.73;7.43;;;;;;;3.55;100.00;98013.94;5096341;28;20183;-67
2021/11/06 07:34:39;;;;;;;14.07;7.30;;;;;;;3.71;100.00;98016.63;5112414;28;20214;-66
2021/11/06 07:37:06;;;;;;;16.23;6.77;;;;;;;3.80;100.00;98019.25;5094841;28;20184;-67
2021/11/06 07:39:32;;;;;;;10.80;6.43;;;;;;;3.69;100.00;98023.75;5094550;28;20176;-67
2021/11/06 07:41:57;;;;;;;9.50;6.10;;;;;;;3.72;100.00;98022.63;5094691;28;20264;-70
2021/11/06 07:44:23;;;;;;;13.73;6.83;;;;;;;3.82;100.00;98020.75;5094938;28;20835;-67
2021/11/06 07:46:48;;;;;;;10.97;6.13;;;;;;;3.88;100.00;98019.31;5104463;28;20180;-66
2021/11/06 07:49:14;;;;;;;18.57;6.80;;;;;;;3.80;100.00;98024.44;5092765;28;20204;-67
2021/11/06 07:51:39;;;;;;;13.27;6.57;;;;;;;3.80;100.00;98024.44;5094243;28;20184;-67
2021/11/06 07:54:05;;;;;;;12.47;6.70;;;;;;;3.94;100.00;98031.66;5101075;28;20184;-67
2021/11/06 07:56:30;;;;;;;13.17;6.10;;;;;;;3.99;100.00;98032.84;5091869;28;20299;-67
2021/11/06 07:58:57;;;;;;;10.90;6.20;;;;;;;3.98;100.00;98032.97;5095434;28;20513;-68
2021/11/06 08:01:22;;;;;;;14.80;6.93;;;;;;;4.07;100.00;98042.41;5101207;28;20584;-68
2021/11/06 08:03:48;;;;;;;14.57;6.20;;;;;;;4.34;100.00;98037.06;5094490;28;20295;-69
2021/11/06 08:06:14;;;;;;;14.47;6.00;;;;;;;4.18;100.00;98042.16;5103938;28;20259;-69
2021/11/06 08:08:40;;;;;;;13.20;6.70;;;;;;;4.09;100.00;98043.91;5090561;28;20292;-68
2021/11/06 08:11:05;;;;;;;14.80;7.20;;;;;;;4.06;100.00;98056.38;5093890;28;20271;-70
2021/11/06 08:13:34;;;;;;;17.63;6.40;;;;;;;4.28;100.00;98048.06;5095091;28;20526;-69
2021/11/06 08:15:59;;;;;;;14.40;6.40;;;;;;;4.36;100.00;98049.84;5095854;28;20168;-69
2021/11/06 08:18:26;;;;;;;17.30;7.20;;;;;;;4.11;100.00;98041.97;5113823;28;20574;-68
2021/11/06 08:20:53;;;;;;;16.03;6.10;;;;;;;4.44;100.00;98040.34;5110046;28;20183;-69
2021/11/06 08:23:19;;;;;;;10.90;6.40;;;;;;;4.45;100.00;98041.16;5102543;28;20192;-70
2021/11/06 08:25:47;;;;;;;13.17;6.27;;;;;;;4.37;100.00;98038.50;5112623;28;20652;-69
2021/11/06 08:28:12;;;;;;;10.97;6.27;;;;;;;4.17;100.00;98036.16;5094207;28;20176;-70
2021/11/06 08:30:38;;;;;;;10.10;6.10;;;;;;;4.31;100.00;98036.53;5106578;28;20187;-68
2021/11/06 08:33:04;;;;;;;11.27;6.53;;;;;;;4.26;100.00;98037.00;5095354;28;20184;-69
2021/11/06 08:35:30;;;;;;;11.03;5.63;;;;;;;4.29;100.00;98039.28;5101782;28;20196;-70
2021/11/06 08:37:59;;;;;;;10.10;6.03;;;;;;;4.44;100.00;98040.34;5105295;28;20190;-68
2021/11/06 08:40:25;;;;;;;12.47;5.63;;;;;;;4.55;100.00;98045.22;5110295;28;20271;-68
2021/11/06 08:42:53;;;;;;;11.93;6.63;;;;;;;4.90;100.00;98048.56;5103082;28;20192;-68
2021/11/06 08:45:18;;;;;;;9.17;5.30;;;;;;;4.99;99.36;98045.00;5093291;28;20210;-67
2021/11/06 08:47:44;;;;;;;12.00;5.97;;;;;;;4.88;98.90;98053.09;5091676;28;20169;-67
2021/11/06 08:50:13;;;;;;;9.97;5.50;;;;;;;4.92;98.61;98050.03;5075326;28;20234;-68
2021/11/06 08:52:39;;;;;;;18.23;5.83;;;;;;;4.86;100.00;98052.44;5075074;28;20262;-69
2021/11/06 08:55:06;;;;;;;9.30;5.67;;;;;;;4.78;100.00;98057.63;5093149;28;20247;-68
2021/11/06 08:57:33;;;;;;;10.37;6.17;;;;;;;5.05;99.34;98053.94;5075032;28;20185;-68
2021/11/06 09:00:05;;;;;;;14.10;6.77;;;;;;;5.10;99.00;98060.28;5093001;28;20229;-68
2021/11/06 09:02:31;;;;;;;11.87;6.97;;;;;;;5.36;97.77;98063.56;5093504;28;20207;-67
2021/11/06 09:04:56;;;;;;;11.87;6.83;;;;;;;5.36;97.96;98060.94;5107283;28;20228;-68
2021/11/06 09:07:22;;;;;;;15.03;6.93;;;;;;;5.36;97.57;98065.34;5093757;28;20195;-67
2021/11/06 09:09:47;;;;;;;12.17;7.17;;;;;;;5.40;99.20;98058.84;5099300;28;20204;-67
2021/11/06 09:12:12;;;;;;;14.03;7.20;;;;;;;5.71;97.26;98059.00;5105513;28;20191;-68
2021/11/06 09:14:38;;;;;;;12.87;6.73;;;;;;;5.64;97.39;98058.03;5112767;28;20206;-67
2021/11/06 09:17:04;;;;;;;18.33;7.17;;;;;;;5.66;97.27;98059.50;5099682;28;20184;-67
2021/11/06 09:19:29;;;;;;;14.57;7.57;;;;;;;5.86;96.86;98055.56;5092814;28;20199;-68
2021/11/06 09:21:55;;;;;;;12.97;6.97;;;;;;;5.51;97.73;98066.34;5092933;28;20185;-68
2021/11/06 09:24:20;;;;;;;20.50;7.33;;;;;;;5.42;97.70;98065.50;5109829;28;20564;-68
2021/11/06 09:26:46;;;;;;;14.60;7.43;;;;;;;5.51;98.56;98068.94;5112936;28;20210;-68
2021/11/06 09:29:14;;;;;;;17.07;7.00;;;;;;;5.49;98.15;98070.06;5112156;28;20611;-68
2021/11/06 09:31:41;;;;;;;13.10;7.80;;;;;;;5.95;97.25;98061.59;5101076;28;20719;-68
2021/11/06 09:34:09;;;;;;;13.43;6.90;;;;;;;5.95;96.26;98061.59;5092915;28;20590;-68
2021/11/06 09:36:35;;;;;;;14.57;7.87;;;;;;;6.07;94.99;98065.47;5092984;28;20646;-68
2021/11/06 09:39:06;;;;;;;14.47;7.67;;;;;;;6.15;94.78;98056.81;5092949;28;20298;-69
2021/11/06 09:41:32;;;;;;;14.53;8.27;;;;;;;6.06;94.64;98069.06;5091292;28;20187;-69
2021/11/06 09:43:58;;;;;;;14.80;8.00;;;;;;;6.14;95.12;98057.78;5093368;28;20569;-68
2021/11/06 09:46:25;;;;;;;17.53;8.30;;;;;;;5.98;96.38;98055.22;5091662;28;20216;-68
2021/11/06 09:48:50;;;;;;;18.83;8.07;;;;;;;6.15;96.13;98062.03;5092732;28;20208;-68
2021/11/06 09:51:18;;;;;;;15.77;9.17;;;;;;;6.47;95.82;98063.69;5091862;28;20229;-68
2021/11/06 09:53:47;;;;;;;14.87;7.93;;;;;;;6.31;95.38;98050.75;5105087;28;20187;-68
2021/11/06 09:56:16;;;;;;;15.03;8.03;;;;;;;6.53;94.00;98063.03;5093224;28;20182;-68
2021/11/06 09:58:42;;;;;;;19.77;7.73;;;;;;;6.68;93.30;98064.78;5109642;28;20255;-67
2021/11/06 10:01:09;;;;;;;15.70;8.00;;;;;;;6.70;92.85;98061.97;5107099;28;20172;-68
2021/11/06 10:03:36;;;;;;;17.50;7.87;;;;;;;6.39;94.51;98063.75;5111585;28;20191;-68
2021/11/06 10:06:05;;;;;;;17.60;7.67;;;;;;;6.02;96.19;98065.13;5093476;28;20225;-67
2021/11/06 10:08:38;;;;;;;15.80;7.70;;;;;;;6.61;93.99;98071.63;5095930;28;20643;-66
2021/11/06 10:11:26;;;;;;;13.67;7.67;;;;;;;6.36;96.58;98071.88;5091322;28;20183;-67
2021/11/06 10:14:06;;;;;;;15.83;8.13;;;;;;;6.43;95.91;98067.63;5092364;28;20184;-67
2021/11/06 10:16:49;;;;;;;15.07;8.30;;;;;;;6.81;93.39;98064.19;5092816;28;20188;-67
2021/11/06 10:19:21;;;;;;;23.30;9.33;;;;;;;6.84;92.54;98058.66;5096830;28;20231;-67
2021/11/06 10:21:50;;;;;;;15.57;9.30;;;;;;;6.99;91.89;98063.94;5096155;28;20188;-67
2021/11/06 10:24:35;;;;;;;15.50;8.60;;;;;;;7.01;92.17;98059.38;5096174;28;20184;-67
2021/11/06 10:27:19;;;;;;;16.50;9.33;;;;;;;6.81;92.15;98058.16;5096214;28;20180;-66
2021/11/06 10:30:05;;;;;;;18.73;9.80;;;;;;;6.77;94.10;98059.50;5093932;28;20293;-67
2021/11/06 10:32:32;;;;;;;18.53;10.00;;;;;;;6.93;91.91;98051.59;5098850;28;20255;-66
2021/11/06 10:35:14;;;;;;;15.73;9.13;;;;;;;7.14;91.88;98051.78;5115212;28;20184;-67
2021/11/06 10:37:41;;;;;;;19.73;10.47;;;;;;;7.21;90.30;98054.50;5100051;28;20176;-67
2021/11/06 10:40:10;;;;;;;16.00;9.93;;;;;;;7.05;91.48;98052.81;5084913;28;20559;-68
2021/11/06 10:42:46;;;;;;;19.30;9.23;;;;;;;7.16;90.23;98039.38;5095621;28;20180;-67
2021/11/06 10:45:15;;;;;;;15.87;9.10;;;;;;;7.03;91.21;98042.56;5111442;28;20700;-67
2021/11/06 10:47:51;;;;;;;19.70;10.03;;;;;;;7.01;90.68;98034.13;5115264;28;20190;-68
2021/11/06 10:50:36;;;;;;;19.43;10.50;;;;;;;7.19;90.62;98030.44;5115451;28;20276;-68
2021/11/06 10:53:02;;;;;;;22.63;10.37;;;;;;;7.27;89.35;98032.94;5115175;28;20194;-67
2021/11/06 10:55:36;;;;;;;18.90;10.47;;;;;;;7.01;91.35;98018.50;5113697;28;20199;-67
2021/11/06 10:58:03;;;;;;;17.37;10.77;;;;;;;6.90;91.73;98023.28;5115748;28;20522;-67
2021/11/06 11:00:29;;;;;;;20.63;10.80;;;;;;;6.95;92.49;98020.97;5113259;28;20199;-67
2021/11/06 11:02:55;;;;;;;19.33;10.80;;;;;;;7.14;91.75;98022.28;5109913;28;20637;-67
2021/11/06 11:05:29;;;;;;;15.93;10.00;;;;;;;7.47;90.70;98021.84;5102305;28;20232;-67
2021/11/06 11:08:14;;;;;;;19.27;11.20;;;;;;;7.53;91.05;98013.31;5092033;28;20184;-67
2021/11/06 11:10:41;;;;;;;21.13;10.70;;;;;;;7.61;90.28;98012.44;5088755;28;20616;-67
2021/11/06 11:13:20;;;;;;;20.60;11.03;;;;;;;8.01;87.79;98016.47;5093457;28;20188;-68
2021/11/06 11:15:49;;;;;;;19.63;11.07;;;;;;;7.92;87.37;98004.47;5110922;28;20191;-67
2021/11/06 11:18:34;;;;;;;18.60;10.93;;;;;;;7.53;90.40;98002.06;5108827;28;20184;-67
2021/11/06 11:21:11;;;;;;;17.83;9.97;;;;;;;7.46;90.88;97999.38;5112029;28;20171;-67
2021/11/06 11:23:39;;;;;;;19.63;11.03;;;;;;;7.72;90.29;97996.38;5102421;28;20228;-67